createdAt,value
2019-02-18T00:00:45.212Z,100945.14
2019-02-18T00:03:14.094Z,100946.55
2019-02-18T00:05:42.745Z,100943.95
2019-02-18T00:08:11.471Z,100943.95
2019-02-18T00:10:40.257Z,100948.94
2019-02-18T00:13:08.882Z,100948.19
2019-02-18T00:15:37.568Z,100949.05
2019-02-18T00:18:06.207Z,100949.41
2019-02-18T00:20:34.846Z,100951.01
2019-02-18T00:23:03.487Z,100947.31
2019-02-18T00:25:32.131Z,100948.27
2019-02-18T00:28:00.767Z,100949.16
2019-02-18T00:30:29.591Z,100943.70
2019-02-18T00:32:58.229Z,100949.33
2019-02-18T00:35:26.849Z,100945.63
2019-02-18T00:37:55.393Z,100955.69
2019-02-18T00:40:24.130Z,100951.01
2019-02-18T00:42:52.736Z,100954.00
2019-02-18T00:45:21.596Z,100952.94
2019-02-18T00:47:50.240Z,100951.00
2019-02-18T00:50:18.861Z,100943.80
2019-02-18T00:52:47.508Z,100949.75
2019-02-18T00:55:16.193Z,100945.60
2019-02-18T00:57:44.984Z,100940.52
2019-02-18T01:00:16.326Z,100942.84
2019-02-18T01:02:45.080Z,100948.73
2019-02-18T01:05:14.003Z,100950.59
2019-02-18T01:07:42.945Z,100946.81
2019-02-18T01:10:12.753Z,100950.34
2019-02-18T01:12:41.370Z,100956.11
2019-02-18T01:15:12.429Z,100957.45
2019-02-18T01:17:41.091Z,100953.83
2019-02-18T01:20:12.265Z,100950.77
2019-02-18T01:22:40.914Z,100949.84
2019-02-18T01:25:11.832Z,100949.79
2019-02-18T01:27:40.486Z,100947.41
2019-02-18T01:30:14.687Z,100952.14
2019-02-18T01:32:43.388Z,100946.56
2019-02-18T01:35:12.132Z,100943.73
2019-02-18T01:37:45.630Z,100941.80
2019-02-18T01:40:13.167Z,100942.47
2019-02-18T01:42:41.901Z,100943.55
2019-02-18T01:45:14.815Z,100940.12
2019-02-18T01:47:43.495Z,100945.55
2019-02-18T01:50:13.982Z,100940.38
2019-02-18T01:52:42.593Z,100944.86
2019-02-18T01:55:12.645Z,100942.29
2019-02-18T01:57:41.466Z,100944.61
2019-02-18T02:00:13.087Z,100937.71
2019-02-18T02:02:41.713Z,100932.17
2019-02-18T02:05:12.357Z,100931.05
2019-02-18T02:07:41.060Z,100926.80
2019-02-18T02:10:12.040Z,100927.02
2019-02-18T02:12:40.767Z,100924.03
2019-02-18T02:15:12.332Z,100918.54
2019-02-18T02:17:40.954Z,100918.66
2019-02-18T02:20:09.707Z,100916.52
2019-02-18T02:22:38.325Z,100917.59
2019-02-18T02:25:07.284Z,100915.98
2019-02-18T02:27:35.936Z,100913.09
2019-02-18T02:30:06.772Z,100911.94
2019-02-18T02:32:35.320Z,100913.80
2019-02-18T02:35:04.059Z,100910.89
2019-02-18T02:37:32.667Z,100909.70
2019-02-18T02:40:01.380Z,100916.34
2019-02-18T02:42:29.993Z,100903.74
2019-02-18T02:44:58.679Z,100909.07
2019-02-18T02:47:27.334Z,100914.44
2019-02-18T02:49:55.970Z,100914.36
2019-02-18T02:52:24.577Z,100915.15
2019-02-18T02:54:53.355Z,100916.09
2019-02-18T02:57:21.997Z,100910.80
2019-02-18T02:59:50.716Z,100912.50
2019-02-18T03:02:19.329Z,100909.48
2019-02-18T03:04:48.247Z,100911.67
2019-02-18T03:07:16.880Z,100908.08
2019-02-18T03:09:45.505Z,100905.52
2019-02-18T03:12:14.192Z,100917.99
2019-02-18T03:14:42.906Z,100917.20
2019-02-18T03:17:11.525Z,100915.09
2019-02-18T03:19:40.388Z,100913.94
2019-02-18T03:22:08.998Z,100915.79
2019-02-18T03:24:37.618Z,100916.77
2019-02-18T03:27:06.174Z,100913.38
2019-02-18T03:29:50.179Z,100913.58
2019-02-18T03:32:18.790Z,100908.41
2019-02-18T03:34:47.419Z,100912.95
2019-02-18T03:37:16.136Z,100908.20
2019-02-18T03:39:44.789Z,100910.05
2019-02-18T03:42:13.986Z,100914.47
2019-02-18T03:44:42.874Z,100905.67
2019-02-18T03:47:11.511Z,100910.55
2019-02-18T03:49:40.110Z,100912.39
2019-02-18T03:52:08.930Z,100908.95
2019-02-18T03:54:37.569Z,100906.44
2019-02-18T03:57:06.177Z,100902.59
2019-02-18T03:59:34.840Z,100903.12
2019-02-18T04:02:03.447Z,100900.70
2019-02-18T04:04:32.086Z,100900.82
2019-02-18T04:07:00.678Z,100904.52
2019-02-18T04:09:29.291Z,100907.28
2019-02-18T04:11:57.833Z,100896.38
2019-02-18T04:14:26.464Z,100903.09
2019-02-18T04:16:55.111Z,100904.06
2019-02-18T04:19:23.759Z,100896.26
2019-02-18T04:21:52.555Z,100897.58
2019-02-18T04:24:21.031Z,100899.36
2019-02-18T04:26:49.876Z,100898.14
2019-02-18T04:29:18.494Z,100894.64
2019-02-18T04:31:47.082Z,100889.81
2019-02-18T04:34:15.707Z,100895.58
2019-02-18T04:36:44.355Z,100896.48
2019-02-18T04:39:12.974Z,100896.08
2019-02-18T04:41:41.730Z,100891.73
2019-02-18T04:44:10.339Z,100897.92
2019-02-18T04:46:39.021Z,100895.80
2019-02-18T04:49:07.645Z,100899.35
2019-02-18T04:51:36.294Z,100895.39
2019-02-18T04:54:04.949Z,100891.50
2019-02-18T04:56:33.972Z,100895.05
2019-02-18T04:59:02.590Z,100900.40
2019-02-18T05:01:31.212Z,100890.78
2019-02-18T05:03:59.857Z,100897.05
2019-02-18T05:06:28.710Z,100896.70
2019-02-18T05:09:05.062Z,100886.25
2019-02-18T05:11:27.557Z,100889.48
2019-02-18T05:13:56.259Z,100883.00
2019-02-18T05:16:24.899Z,100884.84
2019-02-18T05:18:53.503Z,100876.52
2019-02-18T05:21:22.309Z,100873.42
2019-02-18T05:23:50.916Z,100880.81
2019-02-18T05:26:19.574Z,100886.44
2019-02-18T05:28:48.257Z,100882.48
2019-02-18T05:31:17.000Z,100875.88
2019-02-18T05:33:45.590Z,100873.23
2019-02-18T05:36:14.205Z,100870.08
2019-02-18T05:38:42.935Z,100869.70
2019-02-18T05:41:11.541Z,100867.96
2019-02-18T05:43:40.156Z,100865.84
2019-02-18T05:46:08.878Z,100877.72
2019-02-18T05:48:37.500Z,100872.03
2019-02-18T05:51:06.151Z,100864.11
2019-02-18T05:53:34.801Z,100865.89
2019-02-18T05:56:03.422Z,100862.45
2019-02-18T05:58:32.037Z,100863.31
2019-02-18T06:01:00.700Z,100868.59
2019-02-18T06:03:29.231Z,100868.53
2019-02-18T06:05:58.033Z,100862.41
2019-02-18T06:08:26.749Z,100857.93
2019-02-18T06:10:55.352Z,100865.32
2019-02-18T06:13:23.996Z,100867.96
2019-02-18T06:15:52.611Z,100866.19
2019-02-18T06:18:21.250Z,100867.05
2019-02-18T06:20:49.941Z,100867.96
2019-02-18T06:23:18.554Z,100866.64
2019-02-18T06:25:47.201Z,100861.02
2019-02-18T06:28:15.928Z,100856.27
2019-02-18T06:30:44.640Z,100861.58
2019-02-18T06:33:13.296Z,100860.79
2019-02-18T06:35:41.915Z,100863.09
2019-02-18T06:38:10.627Z,100862.67
2019-02-18T06:40:39.675Z,100869.27
2019-02-18T06:43:08.282Z,100864.44
2019-02-18T06:45:38.528Z,100863.54
2019-02-18T06:48:08.820Z,100862.22
2019-02-18T06:50:37.478Z,100866.17
2019-02-18T06:53:06.123Z,100861.36
2019-02-18T06:55:34.742Z,100868.02
2019-02-18T06:58:04.918Z,100876.73
2019-02-18T07:00:35.189Z,100869.27
2019-02-18T07:03:20.392Z,100877.64
2019-02-18T07:05:50.658Z,100871.45
2019-02-18T07:08:29.678Z,100865.77
2019-02-18T07:11:02.943Z,100878.84
2019-02-18T07:13:31.595Z,100869.61
2019-02-18T07:16:00.207Z,100875.72
2019-02-18T07:18:28.835Z,100880.02
2019-02-18T07:20:57.550Z,100873.77
2019-02-18T07:23:26.202Z,100874.56
2019-02-18T07:25:54.868Z,100868.72
2019-02-18T07:28:23.551Z,100865.89
2019-02-18T07:30:52.114Z,100864.01
2019-02-18T07:33:20.767Z,100867.78
2019-02-18T07:35:49.383Z,100862.80
2019-02-18T07:38:18.041Z,100870.95
2019-02-18T07:40:46.657Z,100865.48
2019-02-18T07:43:15.310Z,100866.95
2019-02-18T07:45:43.973Z,100871.88
2019-02-18T07:48:12.483Z,100873.72
2019-02-18T07:50:41.199Z,100868.46
2019-02-18T07:53:09.869Z,100868.48
2019-02-18T07:55:38.539Z,100868.45
2019-02-18T07:58:07.522Z,100867.09
2019-02-18T08:00:36.590Z,100864.54
2019-02-18T08:03:05.285Z,100866.30
2019-02-18T08:05:34.165Z,100854.98
2019-02-18T08:08:02.879Z,100860.00
2019-02-18T08:10:31.565Z,100855.77
2019-02-18T08:13:00.107Z,100856.06
2019-02-18T08:15:29.241Z,100852.36
2019-02-18T08:17:57.785Z,100849.07
2019-02-18T08:20:26.416Z,100845.34
2019-02-18T08:22:55.063Z,100848.03
2019-02-18T08:25:23.661Z,100841.97
2019-02-18T08:27:52.272Z,100843.20
2019-02-18T08:30:20.923Z,100840.01
2019-02-18T08:32:49.545Z,100839.31
2019-02-18T08:35:18.231Z,100839.34
2019-02-18T08:37:46.984Z,100836.70
2019-02-18T08:40:21.995Z,100826.10
2019-02-18T08:42:46.093Z,100820.06
2019-02-18T08:45:15.009Z,100821.86
2019-02-18T08:47:43.631Z,100825.39
2019-02-18T08:50:12.995Z,100814.87
2019-02-18T08:52:41.620Z,100825.39
2019-02-18T08:55:14.209Z,100814.30
2019-02-18T08:57:42.839Z,100812.86
2019-02-18T09:00:16.822Z,100809.13
2019-02-18T09:02:45.643Z,100816.13
2019-02-18T09:05:14.747Z,100816.13
2019-02-18T09:07:43.555Z,100815.61
2019-02-18T09:10:13.959Z,100814.23
2019-02-18T09:12:42.772Z,100809.75
2019-02-18T09:15:14.036Z,100806.63
2019-02-18T09:17:45.714Z,100804.88
2019-02-18T09:20:14.357Z,100803.59
2019-02-18T09:22:47.469Z,100804.28
2019-02-18T09:25:20.719Z,100801.88
2019-02-18T09:27:51.202Z,100802.42
2019-02-18T09:30:21.694Z,100799.54
2019-02-18T09:32:50.483Z,100797.67
2019-02-18T09:35:19.413Z,100801.09
2019-02-18T09:37:48.025Z,100792.39
2019-02-18T09:40:16.783Z,100797.01
2019-02-18T09:42:45.504Z,100798.20
2019-02-18T09:45:15.246Z,100795.83
2019-02-18T09:47:43.872Z,100803.34
2019-02-18T09:50:12.620Z,100798.58
2019-02-18T09:52:41.297Z,100799.06
2019-02-18T09:55:10.781Z,100795.97
2019-02-18T09:57:40.786Z,100798.15
2019-02-18T10:00:12.470Z,100800.08
2019-02-18T10:02:41.301Z,100800.78
2019-02-18T10:05:10.224Z,100799.63
2019-02-18T10:07:38.965Z,100803.01
2019-02-18T10:10:10.291Z,100800.31
2019-02-18T10:12:38.907Z,100793.30
2019-02-18T10:15:10.531Z,100788.03
2019-02-18T10:17:40.615Z,100789.33
2019-02-18T10:20:11.278Z,100783.11
2019-02-18T10:22:39.936Z,100778.73
2019-02-18T10:25:10.975Z,100777.92
2019-02-18T10:27:39.763Z,100769.70
2019-02-18T10:30:11.113Z,100769.31
2019-02-18T10:32:40.002Z,100765.42
2019-02-18T10:35:13.846Z,100760.90
2019-02-18T10:37:42.569Z,100765.19
2019-02-18T10:40:11.659Z,100758.73
2019-02-18T10:42:40.379Z,100764.28
2019-02-18T10:45:11.423Z,100760.61
2019-02-18T10:47:40.622Z,100761.14
2019-02-18T10:50:10.943Z,100757.05
2019-02-18T10:52:39.783Z,100753.95
2019-02-18T10:55:10.080Z,100750.49
2019-02-18T10:57:39.315Z,100745.99
2019-02-18T11:00:16.414Z,100740.34
2019-02-18T11:02:45.464Z,100737.94
2019-02-18T11:05:14.214Z,100737.28
2019-02-18T11:07:43.173Z,100740.15
2019-02-18T11:10:17.015Z,100742.06
2019-02-18T11:12:47.470Z,100738.49
2019-02-18T11:15:16.229Z,100731.69
2019-02-18T11:17:45.847Z,100734.21
2019-02-18T11:20:15.086Z,100728.06
2019-02-18T11:22:43.696Z,100733.85
2019-02-18T11:25:13.507Z,100722.01
2019-02-18T11:27:42.383Z,100725.77
2019-02-18T11:30:20.275Z,100722.38
2019-02-18T11:32:48.885Z,100716.16
2019-02-18T11:35:17.527Z,100712.13
2019-02-18T11:37:46.144Z,100706.48
2019-02-18T11:40:18.579Z,100703.45
2019-02-18T11:42:47.235Z,100702.95
2019-02-18T11:45:16.868Z,100697.88
2019-02-18T11:47:45.488Z,100691.02
2019-02-18T11:50:15.139Z,100689.56
2019-02-18T11:52:43.747Z,100688.94
2019-02-18T11:55:15.794Z,100684.92
2019-02-18T11:57:44.774Z,100687.98
2019-02-18T12:00:17.122Z,100672.23
2019-02-18T12:02:45.807Z,100673.45
2019-02-18T12:05:14.650Z,100664.52
2019-02-18T12:07:43.346Z,100671.58
2019-02-18T12:10:13.200Z,100663.55
2019-02-18T12:12:42.076Z,100662.00
2019-02-18T12:15:15.505Z,100659.75
2019-02-18T12:17:44.148Z,100655.19
2019-02-18T12:20:14.007Z,100653.83
2019-02-18T12:22:42.809Z,100651.79
2019-02-18T12:25:12.749Z,100647.09
2019-02-18T12:27:41.723Z,100643.86
2019-02-18T12:30:17.462Z,100637.76
2019-02-18T12:32:46.077Z,100633.28
2019-02-18T12:35:14.690Z,100627.61
2019-02-18T12:37:43.337Z,100625.52
2019-02-18T12:40:15.232Z,100615.94
2019-02-18T12:42:44.035Z,100618.20
2019-02-18T12:45:13.754Z,100614.42
2019-02-18T12:47:42.560Z,100610.27
2019-02-18T12:50:12.159Z,100601.62
2019-02-18T12:52:41.371Z,100609.09
2019-02-18T12:55:10.896Z,100603.11
2019-02-18T12:57:39.922Z,100599.64
2019-02-18T13:00:14.016Z,100588.98
2019-02-18T13:02:44.582Z,100588.92
2019-02-18T13:05:14.053Z,100585.68
2019-02-18T13:07:42.722Z,100586.39
2019-02-18T13:10:11.996Z,100581.30
2019-02-18T13:12:41.115Z,100580.80
2019-02-18T13:15:17.486Z,100574.27
2019-02-18T13:17:46.187Z,100563.23
2019-02-18T13:20:14.801Z,100561.59
2019-02-18T13:22:43.449Z,100557.00
2019-02-18T13:25:12.435Z,100555.36
2019-02-18T13:27:43.844Z,100546.54
2019-02-18T13:30:17.793Z,100544.23
2019-02-18T13:32:46.541Z,100544.91
2019-02-18T13:35:15.150Z,100540.24
2019-02-18T13:37:43.793Z,100536.67
2019-02-18T13:40:15.159Z,100534.59
2019-02-18T13:42:44.154Z,100537.34
2019-02-18T13:45:12.791Z,100520.55
2019-02-18T13:47:41.429Z,100522.80
2019-02-18T13:50:11.808Z,100525.31
2019-02-18T13:52:40.468Z,100520.97
2019-02-18T13:55:11.432Z,100515.95
2019-02-18T13:57:41.091Z,100510.61
2019-02-18T14:00:18.905Z,100506.58
2019-02-18T14:02:48.134Z,100502.03
2019-02-18T14:05:17.718Z,100503.53
2019-02-18T14:07:46.376Z,100512.02
2019-02-18T14:10:15.297Z,100498.45
2019-02-18T14:12:44.045Z,100506.92
2019-02-18T14:15:14.944Z,100500.48
2019-02-18T14:17:43.602Z,100493.52
2019-02-18T14:20:14.258Z,100494.01
2019-02-18T14:22:42.953Z,100495.52
2019-02-18T14:25:12.050Z,100489.25
2019-02-18T14:27:42.345Z,100482.64
2019-02-18T14:30:18.196Z,100476.19
2019-02-18T14:32:46.878Z,100478.02
2019-02-18T14:35:17.555Z,100473.44
2019-02-18T14:37:46.323Z,100470.55
2019-02-18T14:40:17.374Z,100466.64
2019-02-18T14:42:46.195Z,100466.83
2019-02-18T14:45:15.466Z,100460.39
2019-02-18T14:47:44.628Z,100461.21
2019-02-18T14:50:14.989Z,100453.74
2019-02-18T14:52:44.783Z,100453.39
2019-02-18T14:55:13.992Z,100455.04
2019-02-18T14:57:42.796Z,100455.19
2019-02-18T15:00:22.490Z,100454.83
2019-02-18T15:02:55.530Z,100451.80
2019-02-18T15:05:25.223Z,100448.59
2019-02-18T15:07:53.880Z,100441.98
2019-02-18T15:10:22.534Z,100442.34
2019-02-18T15:12:51.511Z,100446.04
2019-02-18T15:15:20.307Z,100446.33
2019-02-18T15:17:48.956Z,100447.86
2019-02-18T15:20:18.131Z,100447.03
2019-02-18T15:22:46.833Z,100445.33
2019-02-18T15:25:15.719Z,100439.59
2019-02-18T15:27:44.489Z,100436.11
2019-02-18T15:30:15.936Z,100437.63
2019-02-18T15:32:44.596Z,100439.13
2019-02-18T15:35:14.481Z,100438.95
2019-02-18T15:37:43.567Z,100439.28
2019-02-18T15:40:14.680Z,100440.63
2019-02-18T15:42:43.327Z,100432.16
2019-02-18T15:45:12.352Z,100443.12
2019-02-18T15:47:41.046Z,100435.30
2019-02-18T15:50:12.123Z,100433.08
2019-02-18T15:52:41.002Z,100436.25
2019-02-18T15:55:10.848Z,100434.03
2019-02-18T15:57:39.649Z,100430.89
2019-02-18T16:00:13.721Z,100432.33
2019-02-18T16:02:42.368Z,100432.35
2019-02-18T16:05:11.088Z,100432.35
2019-02-18T16:07:40.053Z,100429.86
2019-02-18T16:10:09.682Z,100429.72
2019-02-18T16:12:38.311Z,100433.02
2019-02-18T16:15:08.767Z,100434.43
2019-02-18T16:17:37.487Z,100432.51
2019-02-18T16:20:09.587Z,100433.12
2019-02-18T16:22:38.271Z,100425.62
2019-02-18T16:25:09.856Z,100433.01
2019-02-18T16:27:38.490Z,100431.24
2019-02-18T16:30:10.116Z,100423.00
2019-02-18T16:32:39.330Z,100430.64
2019-02-18T16:35:08.828Z,100422.37
2019-02-18T16:37:37.858Z,100431.97
2019-02-18T16:40:15.251Z,100427.64
2019-02-18T16:42:43.868Z,100429.95
2019-02-18T16:45:16.204Z,100425.14
2019-02-18T16:47:44.967Z,100427.55
2019-02-18T16:50:14.560Z,100428.48
2019-02-18T16:52:43.248Z,100422.63
2019-02-18T16:55:14.369Z,100427.35
2019-02-18T16:57:43.079Z,100430.87
2019-02-18T17:00:21.871Z,100421.62
2019-02-18T17:02:51.103Z,100430.48
2019-02-18T17:05:20.084Z,100437.00
2019-02-18T17:07:48.719Z,100433.73
2019-02-18T17:10:17.505Z,100435.86
2019-02-18T17:12:46.426Z,100434.13
2019-02-18T17:15:15.149Z,100437.31
2019-02-18T17:17:43.752Z,100435.40
2019-02-18T17:20:12.626Z,100432.69
2019-02-18T17:22:41.415Z,100430.30
2019-02-18T17:25:11.558Z,100436.58
2019-02-18T17:27:40.350Z,100440.81
2019-02-18T17:30:15.834Z,100441.11
2019-02-18T17:32:44.442Z,100447.91
2019-02-18T17:35:14.087Z,100443.59
2019-02-18T17:37:42.747Z,100439.48
2019-02-18T17:40:14.962Z,100444.98
2019-02-18T17:42:44.064Z,100446.09
2019-02-18T17:45:17.336Z,100441.06
2019-02-18T17:47:46.050Z,100440.36
2019-02-18T17:50:16.422Z,100438.88
2019-02-18T17:52:45.465Z,100435.70
2019-02-18T17:55:18.601Z,100430.47
2019-02-18T17:57:47.397Z,100432.09
2019-02-18T18:00:21.458Z,100426.13
2019-02-18T18:02:50.162Z,100437.15
2019-02-18T18:05:18.949Z,100435.22
2019-02-18T18:07:47.616Z,100446.87
2019-02-18T18:10:16.711Z,100444.87
2019-02-18T18:12:45.706Z,100450.77
2019-02-18T18:15:16.882Z,100454.25
2019-02-18T18:17:45.809Z,100444.22
2019-02-18T18:20:14.950Z,100444.00
2019-02-18T18:22:43.858Z,100441.36
2019-02-18T18:25:14.232Z,100447.89
2019-02-18T18:27:42.831Z,100442.56
2019-02-18T18:30:13.907Z,100441.16
2019-02-18T18:32:42.567Z,100447.72
2019-02-18T18:35:12.482Z,100454.41
2019-02-18T18:37:41.366Z,100454.58
2019-02-18T18:40:12.859Z,100452.33
2019-02-18T18:42:41.854Z,100454.68
2019-02-18T18:45:12.689Z,100454.83
2019-02-18T18:47:41.448Z,100454.43
2019-02-18T18:50:15.487Z,100444.16
2019-02-18T18:52:44.644Z,100445.62
2019-02-18T18:55:13.296Z,100448.39
2019-02-18T18:57:41.909Z,100452.38
2019-02-18T19:00:21.125Z,100445.31
2019-02-18T19:02:50.210Z,100449.19
2019-02-18T19:05:19.551Z,100452.73
2019-02-18T19:07:48.163Z,100450.67
2019-02-18T19:10:17.013Z,100456.04
2019-02-18T19:12:45.915Z,100453.98
2019-02-18T19:15:15.907Z,100452.98
2019-02-18T19:17:44.710Z,100462.86
2019-02-18T19:20:14.237Z,100460.31
2019-02-18T19:22:43.158Z,100459.86
2019-02-18T19:25:12.820Z,100463.77
2019-02-18T19:27:41.964Z,100462.95
2019-02-18T19:30:28.853Z,100462.95
2019-02-18T19:32:57.733Z,100469.58
2019-02-18T19:35:26.830Z,100468.88
2019-02-18T19:37:55.964Z,100467.19
2019-02-18T19:40:25.031Z,100466.58
2019-02-18T19:42:54.166Z,100468.55
2019-02-18T19:45:24.435Z,100473.53
2019-02-18T19:47:53.683Z,100475.01
2019-02-18T19:50:23.767Z,100468.70
2019-02-18T19:52:52.756Z,100471.25
2019-02-18T19:55:21.741Z,100469.20
2019-02-18T19:57:50.744Z,100473.95
2019-02-18T20:00:21.196Z,100473.95
2019-02-18T20:02:50.266Z,100473.48
2019-02-18T20:05:20.305Z,100476.17
2019-02-18T20:07:49.403Z,100475.08
2019-02-18T20:10:18.987Z,100472.38
2019-02-18T20:12:48.098Z,100477.13
2019-02-18T20:15:17.477Z,100484.34
2019-02-18T20:17:46.567Z,100488.70
2019-02-18T20:20:17.144Z,100487.84
2019-02-18T20:22:46.199Z,100488.84
2019-02-18T20:25:15.491Z,100489.31
2019-02-18T20:27:45.007Z,100485.92
2019-02-18T20:30:15.887Z,100493.09
2019-02-18T20:32:46.169Z,100490.89
2019-02-18T20:35:15.255Z,100483.58
2019-02-18T20:37:44.678Z,100482.75
2019-02-18T20:40:13.758Z,100490.63
2019-02-18T20:42:44.354Z,100484.66
2019-02-18T20:45:14.352Z,100482.71
2019-02-18T20:47:43.495Z,100487.89
2019-02-18T20:50:13.933Z,100487.97
2019-02-18T20:52:43.320Z,100481.32
2019-02-18T20:55:14.170Z,100485.55
2019-02-18T20:57:43.148Z,100482.46
2019-02-18T21:00:18.739Z,100490.67
2019-02-18T21:02:48.210Z,100484.19
2019-02-18T21:05:17.296Z,100491.44
2019-02-18T21:07:46.290Z,100486.53
2019-02-18T21:10:18.098Z,100483.70
2019-02-18T21:12:47.266Z,100486.21
2019-02-18T21:15:16.649Z,100483.19
2019-02-18T21:17:45.622Z,100480.81
2019-02-18T21:20:15.321Z,100485.14
2019-02-18T21:22:44.560Z,100482.47
2019-02-18T21:25:13.705Z,100487.30
2019-02-18T21:27:42.405Z,100486.47
2019-02-18T21:30:13.334Z,100485.14
2019-02-18T21:32:41.969Z,100490.61
2019-02-18T21:35:10.832Z,100486.28
2019-02-18T21:37:39.446Z,100484.69
2019-02-18T21:40:10.383Z,100486.82
2019-02-18T21:42:39.157Z,100485.39
2019-02-18T21:45:15.543Z,100490.12
2019-02-18T21:47:44.262Z,100488.69
2019-02-18T21:50:13.330Z,100491.23
2019-02-18T21:52:42.223Z,100491.01
2019-02-18T21:55:12.058Z,100487.73
2019-02-18T21:57:40.703Z,100489.59
2019-02-18T22:00:19.039Z,100476.97
2019-02-18T22:02:48.149Z,100477.69
2019-02-18T22:05:17.068Z,100486.59
2019-02-18T22:07:45.682Z,100485.98
2019-02-18T22:10:14.718Z,100489.38
2019-02-18T22:12:43.444Z,100493.07
2019-02-18T22:15:14.448Z,100484.56
2019-02-18T22:17:43.796Z,100488.58
2019-02-18T22:20:14.275Z,100487.24
2019-02-18T22:22:42.996Z,100487.48
2019-02-18T22:25:12.703Z,100490.52
2019-02-18T22:27:41.354Z,100485.16
2019-02-18T22:30:14.749Z,100487.02
2019-02-18T22:32:43.363Z,100482.14
2019-02-18T22:35:12.195Z,100485.77
2019-02-18T22:37:40.865Z,100476.89
2019-02-18T22:40:11.646Z,100486.75
2019-02-18T22:42:40.282Z,100479.48
2019-02-18T22:45:11.102Z,100480.45
2019-02-18T22:47:39.850Z,100477.91
2019-02-18T22:50:11.131Z,100482.88
2019-02-18T22:52:41.344Z,100485.55
2019-02-18T22:55:10.962Z,100483.73
2019-02-18T22:57:41.018Z,100479.56
2019-02-18T23:00:23.245Z,100489.16
2019-02-18T23:02:51.860Z,100492.06
2019-02-18T23:05:20.473Z,100482.83
2019-02-18T23:07:49.203Z,100481.63
2019-02-18T23:10:18.056Z,100485.86
2019-02-18T23:12:46.753Z,100485.23
2019-02-18T23:15:15.429Z,100489.22
2019-02-18T23:17:44.232Z,100488.36
2019-02-18T23:20:13.514Z,100487.88
2019-02-18T23:22:42.097Z,100482.77
2019-02-18T23:25:10.887Z,100484.70
2019-02-18T23:27:39.540Z,100483.22
2019-02-18T23:30:08.858Z,100487.45
2019-02-18T23:32:37.495Z,100475.80
2019-02-18T23:35:06.109Z,100476.53
2019-02-18T23:37:35.338Z,100476.05
2019-02-18T23:40:04.753Z,100474.47
2019-02-18T23:42:33.354Z,100479.08
2019-02-18T23:45:02.002Z,100473.36
2019-02-18T23:47:30.628Z,100475.55
2019-02-18T23:49:59.239Z,100475.94
2019-02-18T23:52:27.965Z,100471.16
2019-02-18T23:54:56.571Z,100468.63
2019-02-18T23:57:25.176Z,100471.39
2019-02-18T23:59:53.817Z,100465.80
